createdAt,value
2023-01-28T00:02:41.494Z,0.70
2023-01-28T00:07:43.272Z,0.57
2023-01-28T00:12:45.342Z,0.77
2023-01-28T00:17:46.798Z,1.20
2023-01-28T00:22:51.115Z,0.82
2023-01-28T00:27:53.519Z,1.08
2023-01-28T00:32:55.834Z,0.90
2023-01-28T00:37:57.297Z,1.02
2023-01-28T00:42:59.025Z,1.38
2023-01-28T00:48:00.598Z,1.00
2023-01-28T00:53:02.305Z,0.75
2023-01-28T00:58:03.857Z,1.23
2023-01-28T01:03:05.300Z,0.77
2023-01-28T01:08:06.743Z,0.65
2023-01-28T01:13:08.481Z,0.60
2023-01-28T01:18:09.972Z,0.93
2023-01-28T01:23:12.827Z,0.65
2023-01-28T01:28:15.732Z,0.38
2023-01-28T01:33:17.210Z,0.60
2023-01-28T01:38:18.688Z,0.55
2023-01-28T01:43:21.801Z,0.55
2023-01-28T01:48:25.620Z,0.40
2023-01-28T01:53:28.049Z,0.30
2023-01-28T01:58:31.447Z,0.40
2023-01-28T02:03:41.384Z,0.47
2023-01-28T02:08:45.316Z,0.60
2023-01-28T02:13:48.425Z,0.55
2023-01-28T02:18:49.926Z,0.45
2023-01-28T02:23:51.537Z,0.45
2023-01-28T02:29:05.270Z,0.50
2023-01-28T02:34:30.624Z,0.38
2023-01-28T02:39:35.409Z,0.47
2023-01-28T02:44:37.206Z,0.40
2023-01-28T02:49:50.058Z,0.47
2023-01-28T02:55:17.841Z,0.52
2023-01-28T03:00:25.801Z,0.60
2023-01-28T03:05:30.927Z,0.35
2023-01-28T03:10:32.580Z,0.70
2023-01-28T03:16:00.717Z,0.57
2023-01-28T03:21:53.172Z,0.43
2023-01-28T03:27:16.642Z,0.32
2023-01-28T03:32:37.747Z,0.25
2023-01-28T03:37:39.326Z,0.28
2023-01-28T03:42:41.013Z,0.25
2023-01-28T03:47:43.355Z,0.30
2023-01-28T03:52:44.843Z,0.60
2023-01-28T03:57:46.311Z,0.60
2023-01-28T04:02:47.755Z,0.28
2023-01-28T04:07:51.692Z,0.25
2023-01-28T04:12:54.389Z,0.30
2023-01-28T04:17:55.840Z,0.60
2023-01-28T04:22:57.340Z,0.40
2023-01-28T04:27:58.783Z,0.25
2023-01-28T04:33:00.235Z,0.30
2023-01-28T04:38:01.792Z,0.38
2023-01-28T04:43:03.320Z,0.17
2023-01-28T04:48:04.906Z,0.57
2023-01-28T04:53:06.568Z,0.30
2023-01-28T04:58:08.054Z,0.30
2023-01-28T05:03:09.611Z,0.20
2023-01-28T05:08:11.102Z,0.47
2023-01-28T05:13:12.616Z,0.10
2023-01-28T05:18:14.058Z,0.25
2023-01-28T05:23:15.498Z,0.20
2023-01-28T05:28:16.960Z,0.20
2023-01-28T05:33:18.542Z,0.30
2023-01-28T05:38:20.069Z,0.30
2023-01-28T05:43:22.004Z,0.10
2023-01-28T05:48:23.568Z,0.20
2023-01-28T05:53:25.122Z,0.28
2023-01-28T05:58:30.906Z,0.30
2023-01-28T06:03:32.407Z,0.40
2023-01-28T06:08:33.935Z,0.30
2023-01-28T06:13:35.446Z,0.35
2023-01-28T06:18:36.925Z,0.40
2023-01-28T06:23:38.390Z,0.30
2023-01-28T06:28:39.852Z,0.22
2023-01-28T06:33:41.323Z,0.50
2023-01-28T06:38:42.837Z,0.35
2023-01-28T06:43:44.517Z,0.50
2023-01-28T06:48:46.034Z,0.40
2023-01-28T06:53:47.581Z,0.35
2023-01-28T06:58:49.259Z,0.40
2023-01-28T07:03:50.737Z,0.40
2023-01-28T07:08:52.170Z,0.43
2023-01-28T07:13:53.601Z,0.40
2023-01-28T07:18:55.067Z,0.77
2023-01-28T07:23:57.884Z,0.57
2023-01-28T07:29:00.300Z,0.68
2023-01-28T07:34:01.798Z,0.32
2023-01-28T07:39:03.418Z,0.77
2023-01-28T07:44:05.121Z,0.68
2023-01-28T07:49:06.956Z,0.50
2023-01-28T07:54:08.995Z,0.93
2023-01-28T07:59:10.429Z,0.93
2023-01-28T08:04:12.070Z,0.75
2023-01-28T08:09:13.580Z,0.90
2023-01-28T08:14:15.115Z,1.88
2023-01-28T08:19:18.340Z,0.95
2023-01-28T08:24:19.893Z,0.85
2023-01-28T08:29:21.402Z,0.63
2023-01-28T08:34:23.072Z,0.98
2023-01-28T08:39:24.541Z,0.77
2023-01-28T08:44:26.103Z,0.70
2023-01-28T08:49:27.652Z,0.55
2023-01-28T08:54:29.092Z,0.90
2023-01-28T08:59:30.560Z,1.35
2023-01-28T09:04:32.012Z,0.70
2023-01-28T09:09:33.444Z,0.55
2023-01-28T09:14:34.897Z,1.00
2023-01-28T09:19:36.417Z,1.08
2023-01-28T09:24:39.105Z,0.90
2023-01-28T09:29:40.714Z,0.80
2023-01-28T09:34:44.399Z,0.77
2023-01-28T09:39:45.911Z,0.90
2023-01-28T09:45:03.916Z,0.90
2023-01-28T09:50:07.553Z,0.73
2023-01-28T09:55:32.053Z,1.38
2023-01-28T10:00:45.829Z,0.63
2023-01-28T10:06:02.314Z,1.05
2023-01-28T10:11:20.179Z,1.20
2023-01-28T10:16:29.408Z,1.02
2023-01-28T10:21:41.867Z,0.63
2023-01-28T10:26:44.308Z,0.98
2023-01-28T10:31:53.318Z,0.80
2023-01-28T10:36:55.671Z,1.10
2023-01-28T10:41:58.707Z,0.70
2023-01-28T10:47:03.523Z,1.10
2023-01-28T10:52:14.638Z,1.13
2023-01-28T10:57:17.644Z,0.63
2023-01-28T11:02:19.253Z,0.75
2023-01-28T11:07:21.688Z,1.10
2023-01-28T11:12:27.818Z,1.08
2023-01-28T11:17:33.881Z,0.73
2023-01-28T11:22:39.927Z,0.80
2023-01-28T11:27:46.703Z,0.60
2023-01-28T11:32:54.874Z,0.95
2023-01-28T11:38:00.319Z,1.10
2023-01-28T11:43:02.107Z,0.50
2023-01-28T11:48:11.802Z,1.05
2023-01-28T11:53:22.462Z,0.65
2023-01-28T11:58:43.017Z,1.02
2023-01-28T12:03:59.469Z,1.00
2023-01-28T12:09:21.350Z,1.10
2023-01-28T12:14:22.990Z,0.75
2023-01-28T12:19:39.817Z,0.93
2023-01-28T12:24:59.973Z,1.02
2023-01-28T12:30:24.493Z,1.00
2023-01-28T12:35:40.406Z,0.68
2023-01-28T12:40:44.670Z,0.82
2023-01-28T12:45:52.818Z,0.85
2023-01-28T12:51:03.575Z,0.93
2023-01-28T12:56:05.589Z,0.50
2023-01-28T13:01:12.598Z,0.90
2023-01-28T13:06:19.201Z,1.27
2023-01-28T13:11:21.083Z,0.80
2023-01-28T13:16:35.934Z,1.38
2023-01-28T13:21:48.598Z,0.68
2023-01-28T13:26:56.731Z,0.82
2023-01-28T13:31:59.810Z,0.50
2023-01-28T13:37:05.806Z,0.50
2023-01-28T13:42:09.699Z,0.65
2023-01-28T13:47:11.189Z,0.65
2023-01-28T13:52:12.624Z,0.57
2023-01-28T13:57:34.462Z,0.40
2023-01-28T14:02:53.086Z,0.50
2023-01-28T14:08:24.016Z,0.70
2023-01-28T14:18:35.684Z,0.50
2023-01-28T14:23:37.928Z,0.30
2023-01-28T14:28:42.209Z,0.82
2023-01-28T14:33:43.661Z,0.60
2023-01-28T14:38:45.352Z,0.40
2023-01-28T14:43:47.344Z,0.30
2023-01-28T14:49:00.909Z,0.57
2023-01-28T14:54:21.124Z,0.70
2023-01-28T14:59:22.572Z,0.47
2023-01-28T15:04:25.881Z,0.85
2023-01-28T15:09:27.377Z,0.40
2023-01-28T15:14:30.395Z,0.40
2023-01-28T15:19:36.275Z,0.68
2023-01-28T15:24:42.118Z,0.93
2023-01-28T15:29:51.268Z,0.77
2023-01-28T15:34:52.922Z,0.70
2023-01-28T15:40:01.184Z,0.80
2023-01-28T15:45:03.237Z,0.75
2023-01-28T15:50:06.187Z,1.08
2023-01-28T15:55:08.529Z,0.60
2023-01-28T16:00:12.127Z,0.60
2023-01-28T16:05:46.157Z,0.63
2023-01-28T16:10:57.132Z,0.38
2023-01-28T16:15:59.643Z,0.50
2023-01-28T16:21:01.358Z,0.65
2023-01-28T16:26:04.595Z,0.55
2023-01-28T16:31:06.302Z,0.50
2023-01-28T16:36:12.761Z,1.23
2023-01-28T16:41:15.865Z,0.70
2023-01-28T16:46:17.479Z,0.95
2023-01-28T16:51:20.950Z,1.25
2023-01-28T16:56:43.659Z,0.90
2023-01-28T17:01:45.729Z,0.75
2023-01-28T17:06:47.401Z,0.75
2023-01-28T17:11:48.872Z,0.95
2023-01-28T17:16:50.422Z,1.50
2023-01-28T17:21:51.924Z,1.45
2023-01-28T17:26:53.597Z,1.95
2023-01-28T17:31:55.200Z,1.88
2023-01-28T17:36:56.720Z,1.48
2023-01-28T17:41:58.296Z,3.20
2023-01-28T17:47:00.176Z,4.22
2023-01-28T17:52:01.721Z,2.17
2023-01-28T17:57:03.270Z,6.53
2023-01-28T18:02:06.295Z,3.85
2023-01-28T18:07:11.040Z,1.75
2023-01-28T18:12:13.782Z,1.75
2023-01-28T18:17:15.339Z,2.03
2023-01-28T18:22:16.921Z,1.70
2023-01-28T18:27:18.505Z,1.75
2023-01-28T18:32:20.042Z,1.90
2023-01-28T18:37:21.532Z,1.70
2023-01-28T18:42:23.119Z,1.30
2023-01-28T18:47:25.080Z,1.60
2023-01-28T18:52:26.569Z,1.63
2023-01-28T18:57:28.081Z,1.77
2023-01-28T19:02:29.689Z,1.90
2023-01-28T19:07:31.713Z,2.38
2023-01-28T19:12:33.193Z,1.60
2023-01-28T19:17:35.589Z,1.75
2023-01-28T19:22:37.210Z,1.40
2023-01-28T19:27:39.361Z,1.25
2023-01-28T19:32:40.948Z,1.50
2023-01-28T19:37:42.495Z,2.03
2023-01-28T19:42:45.070Z,2.95
2023-01-28T19:47:47.140Z,3.20
2023-01-28T19:52:48.707Z,3.15
2023-01-28T19:57:50.945Z,2.70
2023-01-28T20:02:52.641Z,2.45
2023-01-28T20:07:54.197Z,2.30
2023-01-28T20:12:55.787Z,2.67
2023-01-28T20:17:57.272Z,3.30
2023-01-28T20:22:59.024Z,2.30
2023-01-28T20:28:01.745Z,2.30
2023-01-28T20:33:03.251Z,1.70
2023-01-28T20:38:04.813Z,1.23
2023-01-28T20:43:06.496Z,0.85
2023-01-28T20:48:08.167Z,0.52
2023-01-28T20:53:10.656Z,1.35
2023-01-28T20:58:13.309Z,1.95
2023-01-28T21:03:14.796Z,1.58
2023-01-28T21:08:16.690Z,1.77
2023-01-28T21:13:18.201Z,1.65
2023-01-28T21:18:19.716Z,1.10
2023-01-28T21:23:24.605Z,1.55
2023-01-28T21:28:26.990Z,1.75
2023-01-28T21:33:28.526Z,1.88
2023-01-28T21:38:30.256Z,2.38
2023-01-28T21:43:32.574Z,1.55
2023-01-28T21:48:34.245Z,1.98
2023-01-28T21:53:36.654Z,2.67
2023-01-28T21:58:57.250Z,3.05
2023-01-28T22:03:58.813Z,3.33
2023-01-28T22:09:00.372Z,3.17
2023-01-28T22:14:01.896Z,1.67
2023-01-28T22:19:03.524Z,1.10
2023-01-28T22:24:05.132Z,1.10
2023-01-28T22:29:07.543Z,1.35
2023-01-28T22:34:09.092Z,0.85
2023-01-28T22:39:12.645Z,1.00
2023-01-28T22:44:14.249Z,0.73
2023-01-28T22:49:15.853Z,1.05
2023-01-28T22:54:17.308Z,1.20
2023-01-28T22:59:18.789Z,1.10
2023-01-28T23:04:20.361Z,0.82
2023-01-28T23:09:21.836Z,0.47
2023-01-28T23:14:42.000Z,0.70
2023-01-28T23:20:02.112Z,0.80
2023-01-28T23:25:03.636Z,0.63
2023-01-28T23:30:10.077Z,0.70
2023-01-28T23:35:12.664Z,0.68
2023-01-28T23:40:14.912Z,0.50
2023-01-28T23:45:17.086Z,1.02
2023-01-28T23:50:19.134Z,0.60
2023-01-28T23:55:20.773Z,0.70
